sensor_id;sensor_type;location;lat;lon;timestamp;temperature;humidity
19945;DHT22;10134;50.952;6.930;2023-07-08T00:00:53;24.50;63.30
19945;DHT22;10134;50.952;6.930;2023-07-08T00:03:21;24.40;63.30
19945;DHT22;10134;50.952;6.930;2023-07-08T00:05:50;24.40;63.40
19945;DHT22;10134;50.952;6.930;2023-07-08T00:08:20;24.40;63.40
19945;DHT22;10134;50.952;6.930;2023-07-08T00:10:48;24.40;63.80
19945;DHT22;10134;50.952;6.930;2023-07-08T00:13:15;24.30;63.90
19945;DHT22;10134;50.952;6.930;2023-07-08T00:15:42;24.30;63.90
19945;DHT22;10134;50.952;6.930;2023-07-08T00:18:15;24.30;63.90
19945;DHT22;10134;50.952;6.930;2023-07-08T00:20:48;24.20;64.10
19945;DHT22;10134;50.952;6.930;2023-07-08T00:23:16;24.20;64.20
19945;DHT22;10134;50.952;6.930;2023-07-08T00:25:43;24.20;64.40
19945;DHT22;10134;50.952;6.930;2023-07-08T00:28:16;24.10;64.40
19945;DHT22;10134;50.952;6.930;2023-07-08T00:30:44;24.10;64.60
19945;DHT22;10134;50.952;6.930;2023-07-08T00:33:11;24.10;64.70
19945;DHT22;10134;50.952;6.930;2023-07-08T00:35:41;24.00;64.80
19945;DHT22;10134;50.952;6.930;2023-07-08T00:38:24;24.00;65.00
19945;DHT22;10134;50.952;6.930;2023-07-08T00:40:58;23.90;65.00
19945;DHT22;10134;50.952;6.930;2023-07-08T00:43:53;23.90;65.20
19945;DHT22;10134;50.952;6.930;2023-07-08T00:51:35;23.80;65.70
19945;DHT22;10134;50.952;6.930;2023-07-08T00:54:12;23.80;65.80
19945;DHT22;10134;50.952;6.930;2023-07-08T00:56:53;23.70;66.00
19945;DHT22;10134;50.952;6.930;2023-07-08T01:01:56;23.70;66.50
19945;DHT22;10134;50.952;6.930;2023-07-08T01:04:28;23.70;66.80
19945;DHT22;10134;50.952;6.930;2023-07-08T01:06:59;23.60;66.80
19945;DHT22;10134;50.952;6.930;2023-07-08T01:09:33;23.60;67.00
19945;DHT22;10134;50.952;6.930;2023-07-08T01:12:03;23.60;67.10
19945;DHT22;10134;50.952;6.930;2023-07-08T01:14:34;23.60;67.20
19945;DHT22;10134;50.952;6.930;2023-07-08T01:17:02;23.60;67.50
19945;DHT22;10134;50.952;6.930;2023-07-08T01:19:30;23.60;67.70
19945;DHT22;10134;50.952;6.930;2023-07-08T01:22:05;23.50;67.70
19945;DHT22;10134;50.952;6.930;2023-07-08T01:24:36;23.50;67.70
19945;DHT22;10134;50.952;6.930;2023-07-08T01:27:08;23.50;67.80
19945;DHT22;10134;50.952;6.930;2023-07-08T01:29:37;23.50;67.90
19945;DHT22;10134;50.952;6.930;2023-07-08T01:32:05;23.60;68.30
19945;DHT22;10134;50.952;6.930;2023-07-08T01:34:34;23.50;68.20
19945;DHT22;10134;50.952;6.930;2023-07-08T01:37:04;23.50;68.30
19945;DHT22;10134;50.952;6.930;2023-07-08T01:39:33;23.50;68.30
19945;DHT22;10134;50.952;6.930;2023-07-08T01:42:00;23.50;68.30
19945;DHT22;10134;50.952;6.930;2023-07-08T01:44:33;23.50;68.40
19945;DHT22;10134;50.952;6.930;2023-07-08T01:47:13;23.50;68.40
19945;DHT22;10134;50.952;6.930;2023-07-08T01:49:43;23.50;68.60
19945;DHT22;10134;50.952;6.930;2023-07-08T01:52:13;23.50;68.70
19945;DHT22;10134;50.952;6.930;2023-07-08T01:54:42;23.40;68.70
19945;DHT22;10134;50.952;6.930;2023-07-08T01:57:09;23.40;68.80
19945;DHT22;10134;50.952;6.930;2023-07-08T01:59:36;23.40;68.80
19945;DHT22;10134;50.952;6.930;2023-07-08T02:02:03;23.40;68.90
19945;DHT22;10134;50.952;6.930;2023-07-08T02:04:31;23.40;69.00
19945;DHT22;10134;50.952;6.930;2023-07-08T02:07:00;23.40;69.00
19945;DHT22;10134;50.952;6.930;2023-07-08T02:09:27;23.40;69.10
19945;DHT22;10134;50.952;6.930;2023-07-08T02:11:55;23.40;69.20
19945;DHT22;10134;50.952;6.930;2023-07-08T02:14:23;23.40;69.20
19945;DHT22;10134;50.952;6.930;2023-07-08T02:16:50;23.40;69.20
19945;DHT22;10134;50.952;6.930;2023-07-08T02:19:18;23.40;69.40
19945;DHT22;10134;50.952;6.930;2023-07-08T02:21:47;23.30;69.30
19945;DHT22;10134;50.952;6.930;2023-07-08T02:24:14;23.30;69.20
19945;DHT22;10134;50.952;6.930;2023-07-08T02:26:44;23.30;69.40
19945;DHT22;10134;50.952;6.930;2023-07-08T02:29:14;23.30;69.50
19945;DHT22;10134;50.952;6.930;2023-07-08T02:31:41;23.30;69.60
19945;DHT22;10134;50.952;6.930;2023-07-08T02:34:09;23.30;69.80
19945;DHT22;10134;50.952;6.930;2023-07-08T02:36:36;23.30;69.70
19945;DHT22;10134;50.952;6.930;2023-07-08T02:39:05;23.30;69.80
19945;DHT22;10134;50.952;6.930;2023-07-08T02:41:33;23.20;69.80
19945;DHT22;10134;50.952;6.930;2023-07-08T02:44:00;23.20;70.00
19945;DHT22;10134;50.952;6.930;2023-07-08T02:46:27;23.20;70.10
19945;DHT22;10134;50.952;6.930;2023-07-08T02:48:55;23.20;70.20
19945;DHT22;10134;50.952;6.930;2023-07-08T02:51:22;23.20;70.20
19945;DHT22;10134;50.952;6.930;2023-07-08T02:53:49;23.20;70.30
19945;DHT22;10134;50.952;6.930;2023-07-08T02:56:17;23.10;70.30
19945;DHT22;10134;50.952;6.930;2023-07-08T02:58:45;23.10;70.40
19945;DHT22;10134;50.952;6.930;2023-07-08T03:01:12;23.10;70.50
19945;DHT22;10134;50.952;6.930;2023-07-08T03:03:45;23.00;70.70
19945;DHT22;10134;50.952;6.930;2023-07-08T03:06:14;23.00;70.80
19945;DHT22;10134;50.952;6.930;2023-07-08T03:08:41;23.00;70.90
19945;DHT22;10134;50.952;6.930;2023-07-08T03:11:08;23.00;71.00
19945;DHT22;10134;50.952;6.930;2023-07-08T03:13:36;22.90;71.20
19945;DHT22;10134;50.952;6.930;2023-07-08T03:16:05;22.90;72.00
19945;DHT22;10134;50.952;6.930;2023-07-08T03:18:40;22.90;71.40
19945;DHT22;10134;50.952;6.930;2023-07-08T03:21:16;22.80;71.50
19945;DHT22;10134;50.952;6.930;2023-07-08T03:23:44;22.80;71.50
19945;DHT22;10134;50.952;6.930;2023-07-08T03:26:18;22.80;71.60
19945;DHT22;10134;50.952;6.930;2023-07-08T03:28:47;22.80;71.70
19945;DHT22;10134;50.952;6.930;2023-07-08T03:31:16;22.80;71.60
19945;DHT22;10134;50.952;6.930;2023-07-08T03:33:43;22.80;71.50
19945;DHT22;10134;50.952;6.930;2023-07-08T03:36:13;22.80;71.60
19945;DHT22;10134;50.952;6.930;2023-07-08T03:38:54;22.80;71.60
19945;DHT22;10134;50.952;6.930;2023-07-08T03:41:23;22.80;71.80
19945;DHT22;10134;50.952;6.930;2023-07-08T03:43:50;22.80;72.70
19945;DHT22;10134;50.952;6.930;2023-07-08T03:46:20;22.80;71.90
19945;DHT22;10134;50.952;6.930;2023-07-08T03:48:52;22.80;71.90
19945;DHT22;10134;50.952;6.930;2023-07-08T03:51:25;22.80;72.00
19945;DHT22;10134;50.952;6.930;2023-07-08T03:53:53;22.80;72.00
19945;DHT22;10134;50.952;6.930;2023-07-08T03:56:22;22.80;72.10
19945;DHT22;10134;50.952;6.930;2023-07-08T03:58:50;22.80;72.20
19945;DHT22;10134;50.952;6.930;2023-07-08T04:01:25;22.90;72.20
19945;DHT22;10134;50.952;6.930;2023-07-08T04:03:55;22.90;72.20
19945;DHT22;10134;50.952;6.930;2023-07-08T04:06:24;22.90;72.20
19945;DHT22;10134;50.952;6.930;2023-07-08T04:08:52;22.90;72.10
19945;DHT22;10134;50.952;6.930;2023-07-08T04:11:22;22.90;72.10
19945;DHT22;10134;50.952;6.930;2023-07-08T04:13:50;22.90;72.20
19945;DHT22;10134;50.952;6.930;2023-07-08T04:16:21;22.90;72.20
19945;DHT22;10134;50.952;6.930;2023-07-08T04:18:50;22.90;72.20
19945;DHT22;10134;50.952;6.930;2023-07-08T04:21:21;22.90;72.10
19945;DHT22;10134;50.952;6.930;2023-07-08T04:24:04;22.90;72.20
19945;DHT22;10134;50.952;6.930;2023-07-08T04:26:31;22.90;72.20
19945;DHT22;10134;50.952;6.930;2023-07-08T04:29:02;22.90;72.10
19945;DHT22;10134;50.952;6.930;2023-07-08T04:31:29;22.90;72.20
19945;DHT22;10134;50.952;6.930;2023-07-08T04:33:59;22.80;72.10
19945;DHT22;10134;50.952;6.930;2023-07-08T04:36:27;22.80;72.00
19945;DHT22;10134;50.952;6.930;2023-07-08T04:38:54;22.80;71.80
19945;DHT22;10134;50.952;6.930;2023-07-08T04:41:24;22.80;71.90
19945;DHT22;10134;50.952;6.930;2023-07-08T04:43:54;22.80;72.00
19945;DHT22;10134;50.952;6.930;2023-07-08T04:46:42;22.80;72.10
19945;DHT22;10134;50.952;6.930;2023-07-08T04:49:12;22.80;72.00
19945;DHT22;10134;50.952;6.930;2023-07-08T04:51:43;22.80;72.00
19945;DHT22;10134;50.952;6.930;2023-07-08T04:54:10;22.80;72.10
19945;DHT22;10134;50.952;6.930;2023-07-08T04:56:47;22.80;72.20
19945;DHT22;10134;50.952;6.930;2023-07-08T04:59:21;22.80;72.00
19945;DHT22;10134;50.952;6.930;2023-07-08T05:01:50;22.80;72.10
19945;DHT22;10134;50.952;6.930;2023-07-08T05:04:21;22.80;72.10
19945;DHT22;10134;50.952;6.930;2023-07-08T05:06:49;22.80;72.30
19945;DHT22;10134;50.952;6.930;2023-07-08T05:09:16;22.80;72.10
19945;DHT22;10134;50.952;6.930;2023-07-08T05:11:44;22.80;72.10
19945;DHT22;10134;50.952;6.930;2023-07-08T05:14:12;22.90;72.10
19945;DHT22;10134;50.952;6.930;2023-07-08T05:16:40;22.90;72.10
19945;DHT22;10134;50.952;6.930;2023-07-08T05:19:08;23.00;72.10
19945;DHT22;10134;50.952;6.930;2023-07-08T05:21:36;23.00;72.00
19945;DHT22;10134;50.952;6.930;2023-07-08T05:24:05;23.00;71.90
19945;DHT22;10134;50.952;6.930;2023-07-08T05:26:33;23.10;72.00
19945;DHT22;10134;50.952;6.930;2023-07-08T05:29:01;23.10;72.00
19945;DHT22;10134;50.952;6.930;2023-07-08T05:31:28;23.20;72.00
19945;DHT22;10134;50.952;6.930;2023-07-08T05:33:58;23.20;71.70
19945;DHT22;10134;50.952;6.930;2023-07-08T05:36:26;23.30;72.20
19945;DHT22;10134;50.952;6.930;2023-07-08T05:38:53;23.30;71.70
19945;DHT22;10134;50.952;6.930;2023-07-08T05:41:20;23.30;71.80
19945;DHT22;10134;50.952;6.930;2023-07-08T05:43:48;23.30;71.70
19945;DHT22;10134;50.952;6.930;2023-07-08T05:46:15;23.30;71.70
19945;DHT22;10134;50.952;6.930;2023-07-08T05:48:42;23.40;71.60
19945;DHT22;10134;50.952;6.930;2023-07-08T05:51:09;23.40;71.40
19945;DHT22;10134;50.952;6.930;2023-07-08T05:53:37;23.40;71.20
19945;DHT22;10134;50.952;6.930;2023-07-08T05:56:04;23.50;71.20
19945;DHT22;10134;50.952;6.930;2023-07-08T05:58:32;23.50;70.90
19945;DHT22;10134;50.952;6.930;2023-07-08T06:00:59;23.50;70.70
19945;DHT22;10134;50.952;6.930;2023-07-08T06:03:27;23.60;70.70
19945;DHT22;10134;50.952;6.930;2023-07-08T06:05:55;23.70;70.60
19945;DHT22;10134;50.952;6.930;2023-07-08T06:08:22;23.70;70.40
19945;DHT22;10134;50.952;6.930;2023-07-08T06:10:50;23.80;70.40
19945;DHT22;10134;50.952;6.930;2023-07-08T06:13:18;23.90;70.30
19945;DHT22;10134;50.952;6.930;2023-07-08T06:15:47;23.90;70.20
19945;DHT22;10134;50.952;6.930;2023-07-08T06:18:15;23.90;70.10
19945;DHT22;10134;50.952;6.930;2023-07-08T06:20:51;24.00;70.20
19945;DHT22;10134;50.952;6.930;2023-07-08T06:23:18;24.00;70.10
19945;DHT22;10134;50.952;6.930;2023-07-08T06:25:45;24.00;70.00
19945;DHT22;10134;50.952;6.930;2023-07-08T06:28:13;24.00;69.90
19945;DHT22;10134;50.952;6.930;2023-07-08T06:30:40;24.10;70.00
19945;DHT22;10134;50.952;6.930;2023-07-08T06:33:07;24.10;69.80
19945;DHT22;10134;50.952;6.930;2023-07-08T06:35:35;24.10;70.00
19945;DHT22;10134;50.952;6.930;2023-07-08T06:38:02;24.10;69.80
19945;DHT22;10134;50.952;6.930;2023-07-08T06:40:30;24.20;69.60
19945;DHT22;10134;50.952;6.930;2023-07-08T06:43:02;24.20;69.60
19945;DHT22;10134;50.952;6.930;2023-07-08T06:45:47;24.30;69.80
19945;DHT22;10134;50.952;6.930;2023-07-08T06:48:15;24.30;69.60
19945;DHT22;10134;50.952;6.930;2023-07-08T06:50:45;24.40;69.50
19945;DHT22;10134;50.952;6.930;2023-07-08T06:53:14;24.50;69.30
19945;DHT22;10134;50.952;6.930;2023-07-08T06:55:46;24.50;69.70
19945;DHT22;10134;50.952;6.930;2023-07-08T06:58:14;24.60;68.80
19945;DHT22;10134;50.952;6.930;2023-07-08T07:00:42;24.70;68.50
19945;DHT22;10134;50.952;6.930;2023-07-08T07:03:11;24.80;68.40
19945;DHT22;10134;50.952;6.930;2023-07-08T07:05:39;24.90;68.50
19945;DHT22;10134;50.952;6.930;2023-07-08T07:08:07;24.90;68.50
19945;DHT22;10134;50.952;6.930;2023-07-08T07:10:35;25.00;68.40
19945;DHT22;10134;50.952;6.930;2023-07-08T07:13:04;25.00;68.30
19945;DHT22;10134;50.952;6.930;2023-07-08T07:15:32;25.00;68.50
19945;DHT22;10134;50.952;6.930;2023-07-08T07:18:00;25.00;68.70
19945;DHT22;10134;50.952;6.930;2023-07-08T07:20:27;25.00;68.80
19945;DHT22;10134;50.952;6.930;2023-07-08T07:22:55;25.00;68.70
19945;DHT22;10134;50.952;6.930;2023-07-08T07:25:22;25.10;68.50
19945;DHT22;10134;50.952;6.930;2023-07-08T07:27:50;25.10;68.40
19945;DHT22;10134;50.952;6.930;2023-07-08T07:30:17;25.10;68.60
19945;DHT22;10134;50.952;6.930;2023-07-08T07:32:45;25.10;68.70
19945;DHT22;10134;50.952;6.930;2023-07-08T07:35:13;25.10;68.90
19945;DHT22;10134;50.952;6.930;2023-07-08T07:37:43;25.20;69.00
19945;DHT22;10134;50.952;6.930;2023-07-08T07:40:12;25.20;68.90
19945;DHT22;10134;50.952;6.930;2023-07-08T07:42:43;25.20;68.90
19945;DHT22;10134;50.952;6.930;2023-07-08T07:45:12;25.20;68.80
19945;DHT22;10134;50.952;6.930;2023-07-08T07:47:40;25.20;68.70
19945;DHT22;10134;50.952;6.930;2023-07-08T07:50:09;25.20;68.80
19945;DHT22;10134;50.952;6.930;2023-07-08T07:52:37;25.30;68.90
19945;DHT22;10134;50.952;6.930;2023-07-08T07:55:05;25.30;68.70
19945;DHT22;10134;50.952;6.930;2023-07-08T07:57:33;25.30;68.60
19945;DHT22;10134;50.952;6.930;2023-07-08T08:00:00;25.40;68.60
19945;DHT22;10134;50.952;6.930;2023-07-08T08:02:27;25.40;68.50
19945;DHT22;10134;50.952;6.930;2023-07-08T08:04:55;25.50;68.30
19945;DHT22;10134;50.952;6.930;2023-07-08T08:07:22;25.50;68.20
19945;DHT22;10134;50.952;6.930;2023-07-08T08:09:49;25.60;68.00
19945;DHT22;10134;50.952;6.930;2023-07-08T08:12:17;25.70;67.70
19945;DHT22;10134;50.952;6.930;2023-07-08T08:14:45;25.80;68.30
19945;DHT22;10134;50.952;6.930;2023-07-08T08:17:13;25.80;67.60
19945;DHT22;10134;50.952;6.930;2023-07-08T08:19:46;25.90;67.60
19945;DHT22;10134;50.952;6.930;2023-07-08T08:22:13;26.00;67.60
19945;DHT22;10134;50.952;6.930;2023-07-08T08:24:42;26.10;67.70
19945;DHT22;10134;50.952;6.930;2023-07-08T08:27:09;26.10;67.70
19945;DHT22;10134;50.952;6.930;2023-07-08T08:29:37;26.20;67.70
19945;DHT22;10134;50.952;6.930;2023-07-08T08:32:05;26.30;67.80
19945;DHT22;10134;50.952;6.930;2023-07-08T08:34:32;26.30;67.70
19945;DHT22;10134;50.952;6.930;2023-07-08T08:36:59;26.30;67.60
19945;DHT22;10134;50.952;6.930;2023-07-08T08:39:27;26.30;67.50
19945;DHT22;10134;50.952;6.930;2023-07-08T08:41:56;26.30;67.60
19945;DHT22;10134;50.952;6.930;2023-07-08T08:44:31;26.30;67.80
19945;DHT22;10134;50.952;6.930;2023-07-08T08:47:11;26.40;67.60
19945;DHT22;10134;50.952;6.930;2023-07-08T08:49:47;26.40;67.50
19945;DHT22;10134;50.952;6.930;2023-07-08T08:52:16;26.40;67.70
19945;DHT22;10134;50.952;6.930;2023-07-08T08:54:44;26.50;67.40
19945;DHT22;10134;50.952;6.930;2023-07-08T08:59:57;26.50;66.90
19945;DHT22;10134;50.952;6.930;2023-07-08T09:05:25;26.60;66.00
19945;DHT22;10134;50.952;6.930;2023-07-08T09:08:23;26.70;66.00
19945;DHT22;10134;50.952;6.930;2023-07-08T09:11:00;26.70;65.80
19945;DHT22;10134;50.952;6.930;2023-07-08T09:13:34;26.80;65.80
19945;DHT22;10134;50.952;6.930;2023-07-08T09:16:29;26.80;66.30
19945;DHT22;10134;50.952;6.930;2023-07-08T09:19:12;26.90;65.60
19945;DHT22;10134;50.952;6.930;2023-07-08T09:24:49;27.10;65.40
19945;DHT22;10134;50.952;6.930;2023-07-08T09:27:17;27.10;65.50
19945;DHT22;10134;50.952;6.930;2023-07-08T09:29:46;27.20;65.60
19945;DHT22;10134;50.952;6.930;2023-07-08T09:32:19;27.30;65.60
19945;DHT22;10134;50.952;6.930;2023-07-08T09:34:53;27.30;65.40
19945;DHT22;10134;50.952;6.930;2023-07-08T09:37:27;27.40;65.20
19945;DHT22;10134;50.952;6.930;2023-07-08T09:39:56;27.50;65.10
19945;DHT22;10134;50.952;6.930;2023-07-08T09:42:32;27.60;64.90
19945;DHT22;10134;50.952;6.930;2023-07-08T09:45:13;27.70;64.80
19945;DHT22;10134;50.952;6.930;2023-07-08T09:47:43;27.70;64.40
19945;DHT22;10134;50.952;6.930;2023-07-08T09:50:27;27.80;64.30
19945;DHT22;10134;50.952;6.930;2023-07-08T09:52:58;27.90;64.10
19945;DHT22;10134;50.952;6.930;2023-07-08T09:55:28;28.00;63.60
19945;DHT22;10134;50.952;6.930;2023-07-08T09:58:00;28.10;63.60
19945;DHT22;10134;50.952;6.930;2023-07-08T10:00:38;28.10;63.40
19945;DHT22;10134;50.952;6.930;2023-07-08T10:03:25;28.20;63.30
19945;DHT22;10134;50.952;6.930;2023-07-08T10:06:26;28.30;63.50
19945;DHT22;10134;50.952;6.930;2023-07-08T10:08:55;28.40;63.30
19945;DHT22;10134;50.952;6.930;2023-07-08T10:11:30;28.50;63.10
19945;DHT22;10134;50.952;6.930;2023-07-08T10:14:16;28.50;63.00
19945;DHT22;10134;50.952;6.930;2023-07-08T10:16:44;28.60;63.10
19945;DHT22;10134;50.952;6.930;2023-07-08T10:19:17;28.70;63.30
19945;DHT22;10134;50.952;6.930;2023-07-08T10:21:55;28.80;63.10
19945;DHT22;10134;50.952;6.930;2023-07-08T10:37:56;29.20;62.00
19945;DHT22;10134;50.952;6.930;2023-07-08T10:57:51;29.70;60.70
19945;DHT22;10134;50.952;6.930;2023-07-08T11:03:06;29.80;60.40
19945;DHT22;10134;50.952;6.930;2023-07-08T11:05:45;29.90;60.40
19945;DHT22;10134;50.952;6.930;2023-07-08T11:08:24;29.90;60.00
19945;DHT22;10134;50.952;6.930;2023-07-08T11:10:59;30.00;60.00
19945;DHT22;10134;50.952;6.930;2023-07-08T11:13:50;30.10;59.80
19945;DHT22;10134;50.952;6.930;2023-07-08T11:16:41;30.10;59.70
19945;DHT22;10134;50.952;6.930;2023-07-08T11:19:17;30.20;59.60
19945;DHT22;10134;50.952;6.930;2023-07-08T11:21:52;30.20;59.50
19945;DHT22;10134;50.952;6.930;2023-07-08T11:24:35;30.30;59.20
19945;DHT22;10134;50.952;6.930;2023-07-08T11:27:15;30.30;59.00
19945;DHT22;10134;50.952;6.930;2023-07-08T11:32:21;30.40;59.40
19945;DHT22;10134;50.952;6.930;2023-07-08T11:34:51;30.50;58.90
19945;DHT22;10134;50.952;6.930;2023-07-08T11:37:20;30.60;59.00
19945;DHT22;10134;50.952;6.930;2023-07-08T11:40:05;30.60;58.40
19945;DHT22;10134;50.952;6.930;2023-07-08T11:42:41;30.70;58.30
19945;DHT22;10134;50.952;6.930;2023-07-08T11:47:47;30.80;57.90
19945;DHT22;10134;50.952;6.930;2023-07-08T11:50:23;30.80;57.80
19945;DHT22;10134;50.952;6.930;2023-07-08T11:53:01;30.90;57.80
19945;DHT22;10134;50.952;6.930;2023-07-08T11:55:38;30.90;57.50
19945;DHT22;10134;50.952;6.930;2023-07-08T11:58:08;31.00;57.30
19945;DHT22;10134;50.952;6.930;2023-07-08T12:00:57;31.00;57.00
19945;DHT22;10134;50.952;6.930;2023-07-08T12:03:39;31.10;57.40
19945;DHT22;10134;50.952;6.930;2023-07-08T12:08:55;31.10;57.70
19945;DHT22;10134;50.952;6.930;2023-07-08T12:11:44;31.10;57.50
19945;DHT22;10134;50.952;6.930;2023-07-08T12:14:12;31.10;57.40
19945;DHT22;10134;50.952;6.930;2023-07-08T12:16:41;31.20;57.40
19945;DHT22;10134;50.952;6.930;2023-07-08T12:19:16;31.20;57.40
19945;DHT22;10134;50.952;6.930;2023-07-08T12:21:50;31.30;57.10
19945;DHT22;10134;50.952;6.930;2023-07-08T12:24:22;31.30;55.60
19945;DHT22;10134;50.952;6.930;2023-07-08T12:26:53;31.40;55.80
19945;DHT22;10134;50.952;6.930;2023-07-08T12:29:21;31.40;56.10
19945;DHT22;10134;50.952;6.930;2023-07-08T12:31:49;31.50;56.30
19945;DHT22;10134;50.952;6.930;2023-07-08T12:34:17;31.50;56.20
19945;DHT22;10134;50.952;6.930;2023-07-08T12:36:45;31.60;56.40
19945;DHT22;10134;50.952;6.930;2023-07-08T12:39:15;31.70;56.30
19945;DHT22;10134;50.952;6.930;2023-07-08T12:41:45;31.70;56.20
19945;DHT22;10134;50.952;6.930;2023-07-08T12:44:25;31.80;56.10
19945;DHT22;10134;50.952;6.930;2023-07-08T12:46:54;31.80;56.30
19945;DHT22;10134;50.952;6.930;2023-07-08T12:49:22;31.90;56.10
19945;DHT22;10134;50.952;6.930;2023-07-08T12:51:55;32.00;55.90
19945;DHT22;10134;50.952;6.930;2023-07-08T12:54:22;32.00;56.00
19945;DHT22;10134;50.952;6.930;2023-07-08T12:56:51;32.20;56.00
19945;DHT22;10134;50.952;6.930;2023-07-08T12:59:21;32.20;56.20
19945;DHT22;10134;50.952;6.930;2023-07-08T13:01:49;32.30;55.70
19945;DHT22;10134;50.952;6.930;2023-07-08T13:04:19;32.40;55.50
19945;DHT22;10134;50.952;6.930;2023-07-08T13:06:47;32.40;55.30
19945;DHT22;10134;50.952;6.930;2023-07-08T13:09:36;32.50;55.10
19945;DHT22;10134;50.952;6.930;2023-07-08T13:12:15;32.60;55.30
19945;DHT22;10134;50.952;6.930;2023-07-08T13:14:44;32.70;54.70
19945;DHT22;10134;50.952;6.930;2023-07-08T13:17:13;32.80;54.60
19945;DHT22;10134;50.952;6.930;2023-07-08T13:19:42;32.90;54.00
19945;DHT22;10134;50.952;6.930;2023-07-08T13:22:21;33.00;54.10
19945;DHT22;10134;50.952;6.930;2023-07-08T13:24:49;33.10;53.80
19945;DHT22;10134;50.952;6.930;2023-07-08T13:27:26;33.20;53.60
19945;DHT22;10134;50.952;6.930;2023-07-08T13:29:56;33.30;52.90
19945;DHT22;10134;50.952;6.930;2023-07-08T13:32:32;33.30;52.00
19945;DHT22;10134;50.952;6.930;2023-07-08T13:34:59;33.40;52.30
19945;DHT22;10134;50.952;6.930;2023-07-08T13:37:30;33.50;52.50
19945;DHT22;10134;50.952;6.930;2023-07-08T13:39:58;33.70;52.50
19945;DHT22;10134;50.952;6.930;2023-07-08T13:42:25;33.70;52.30
19945;DHT22;10134;50.952;6.930;2023-07-08T13:44:52;33.80;52.30
19945;DHT22;10134;50.952;6.930;2023-07-08T13:47:29;33.90;52.30
19945;DHT22;10134;50.952;6.930;2023-07-08T13:50:07;34.00;52.30
19945;DHT22;10134;50.952;6.930;2023-07-08T13:52:43;34.20;52.70
19945;DHT22;10134;50.952;6.930;2023-07-08T13:55:17;34.30;53.00
19945;DHT22;10134;50.952;6.930;2023-07-08T13:57:59;34.40;52.60
19945;DHT22;10134;50.952;6.930;2023-07-08T14:00:31;34.60;52.10
19945;DHT22;10134;50.952;6.930;2023-07-08T14:03:02;34.70;52.00
19945;DHT22;10134;50.952;6.930;2023-07-08T14:05:29;34.80;52.00
19945;DHT22;10134;50.952;6.930;2023-07-08T14:07:57;35.00;51.60
19945;DHT22;10134;50.952;6.930;2023-07-08T14:10:24;35.00;51.10
19945;DHT22;10134;50.952;6.930;2023-07-08T14:12:51;35.20;50.90
19945;DHT22;10134;50.952;6.930;2023-07-08T14:15:19;35.20;50.90
19945;DHT22;10134;50.952;6.930;2023-07-08T14:17:46;35.30;51.10
19945;DHT22;10134;50.952;6.930;2023-07-08T14:20:16;35.40;51.00
19945;DHT22;10134;50.952;6.930;2023-07-08T14:22:44;35.40;50.80
19945;DHT22;10134;50.952;6.930;2023-07-08T14:25:14;35.50;50.90
19945;DHT22;10134;50.952;6.930;2023-07-08T14:27:42;35.60;50.90
19945;DHT22;10134;50.952;6.930;2023-07-08T14:30:10;35.70;50.70
19945;DHT22;10134;50.952;6.930;2023-07-08T14:32:38;35.90;50.60
19945;DHT22;10134;50.952;6.930;2023-07-08T14:35:24;36.00;50.70
19945;DHT22;10134;50.952;6.930;2023-07-08T14:37:54;36.10;50.20
19945;DHT22;10134;50.952;6.930;2023-07-08T14:40:34;36.20;50.00
19945;DHT22;10134;50.952;6.930;2023-07-08T14:45:42;36.40;49.70
19945;DHT22;10134;50.952;6.930;2023-07-08T14:48:12;36.50;49.50
19945;DHT22;10134;50.952;6.930;2023-07-08T14:50:40;36.50;49.50
19945;DHT22;10134;50.952;6.930;2023-07-08T14:53:08;36.50;49.50
19945;DHT22;10134;50.952;6.930;2023-07-08T14:55:36;36.40;49.40
19945;DHT22;10134;50.952;6.930;2023-07-08T14:58:04;36.40;49.40
19945;DHT22;10134;50.952;6.930;2023-07-08T15:00:31;36.40;49.10
19945;DHT22;10134;50.952;6.930;2023-07-08T15:02:59;36.40;49.40
19945;DHT22;10134;50.952;6.930;2023-07-08T15:05:27;36.30;49.80
19945;DHT22;10134;50.952;6.930;2023-07-08T15:07:56;36.40;50.10
19945;DHT22;10134;50.952;6.930;2023-07-08T15:10:26;36.40;50.00
19945;DHT22;10134;50.952;6.930;2023-07-08T15:12:55;36.40;50.00
19945;DHT22;10134;50.952;6.930;2023-07-08T15:15:30;36.40;49.70
19945;DHT22;10134;50.952;6.930;2023-07-08T15:17:59;36.50;49.60
19945;DHT22;10134;50.952;6.930;2023-07-08T15:20:28;36.50;49.60
19945;DHT22;10134;50.952;6.930;2023-07-08T15:22:55;36.50;49.50
19945;DHT22;10134;50.952;6.930;2023-07-08T15:25:23;36.50;49.60
19945;DHT22;10134;50.952;6.930;2023-07-08T15:27:52;36.50;49.50
19945;DHT22;10134;50.952;6.930;2023-07-08T15:30:25;36.40;49.60
19945;DHT22;10134;50.952;6.930;2023-07-08T15:32:53;36.40;49.80
19945;DHT22;10134;50.952;6.930;2023-07-08T15:35:26;36.40;50.00
19945;DHT22;10134;50.952;6.930;2023-07-08T15:37:57;36.40;50.00
19945;DHT22;10134;50.952;6.930;2023-07-08T15:40:27;36.30;50.00
19945;DHT22;10134;50.952;6.930;2023-07-08T15:42:58;36.30;50.10
19945;DHT22;10134;50.952;6.930;2023-07-08T15:45:29;36.30;50.20
19945;DHT22;10134;50.952;6.930;2023-07-08T15:47:58;36.20;50.20
19945;DHT22;10134;50.952;6.930;2023-07-08T15:50:26;36.20;50.30
19945;DHT22;10134;50.952;6.930;2023-07-08T15:52:55;36.10;50.50
19945;DHT22;10134;50.952;6.930;2023-07-08T15:55:29;36.10;50.70
19945;DHT22;10134;50.952;6.930;2023-07-08T15:58:01;36.00;50.80
19945;DHT22;10134;50.952;6.930;2023-07-08T16:00:32;36.00;51.00
19945;DHT22;10134;50.952;6.930;2023-07-08T16:03:03;35.90;50.90
19945;DHT22;10134;50.952;6.930;2023-07-08T16:05:32;35.80;50.90
19945;DHT22;10134;50.952;6.930;2023-07-08T16:08:02;35.70;51.00
19945;DHT22;10134;50.952;6.930;2023-07-08T16:10:32;35.60;51.10
19945;DHT22;10134;50.952;6.930;2023-07-08T16:13:01;35.50;51.20
19945;DHT22;10134;50.952;6.930;2023-07-08T16:15:34;35.40;51.30
19945;DHT22;10134;50.952;6.930;2023-07-08T16:18:02;35.40;51.30
19945;DHT22;10134;50.952;6.930;2023-07-08T16:20:31;35.30;51.50
19945;DHT22;10134;50.952;6.930;2023-07-08T16:22:59;35.20;51.70
19945;DHT22;10134;50.952;6.930;2023-07-08T16:25:33;35.10;52.00
19945;DHT22;10134;50.952;6.930;2023-07-08T16:28:03;35.00;52.00
19945;DHT22;10134;50.952;6.930;2023-07-08T16:30:31;35.00;52.20
19945;DHT22;10134;50.952;6.930;2023-07-08T16:32:59;34.90;52.50
19945;DHT22;10134;50.952;6.930;2023-07-08T16:35:26;34.90;52.80
19945;DHT22;10134;50.952;6.930;2023-07-08T16:37:54;34.90;53.00
19945;DHT22;10134;50.952;6.930;2023-07-08T16:40:24;34.80;53.00
19945;DHT22;10134;50.952;6.930;2023-07-08T16:42:54;34.90;53.30
19945;DHT22;10134;50.952;6.930;2023-07-08T16:45:23;34.90;53.50
19945;DHT22;10134;50.952;6.930;2023-07-08T16:47:52;34.90;53.60
19945;DHT22;10134;50.952;6.930;2023-07-08T16:50:23;34.90;53.60
19945;DHT22;10134;50.952;6.930;2023-07-08T16:52:51;34.90;53.70